Time,TemperatureF,DewpointF,PressureIn,WindDirection,WindDirectionDegrees,WindSpeedMPH,WindSpeedGustMPH,Humidity,HourlyPrecipIn,Conditions,Clouds,dailyrainin,SoftwareType,DateUTC
2013-10-09 00:05:00,67.0,66.0,29.96,South,177,0.0,1.0,98,-99.99,,,-99.99,,2013-10-09 04:05:00,
2013-10-09 00:24:00,67.0,66.0,29.96,SSW,203,1.0,2.0,98,-99.99,,,-99.99,,2013-10-09 04:24:00,
2013-10-09 00:44:00,67.0,67.0,29.96,WSW,238,1.0,1.0,98,-99.99,,,-99.99,,2013-10-09 04:44:00,
2013-10-09 00:54:00,67.0,67.0,29.96,South,170,0.0,1.0,98,-99.99,,,-99.99,,2013-10-09 04:54:00,
2013-10-09 01:04:00,67.0,67.0,29.96,South,170,0.0,1.0,98,-99.99,,,-99.99,,2013-10-09 05:04:00,
2013-10-09 01:22:00,68.0,67.0,29.95,SSW,211,1.0,1.0,98,-99.99,,,-99.99,,2013-10-09 05:22:00,
2013-10-09 01:42:00,68.0,67.0,29.95,West,265,1.0,2.0,98,-99.99,,,-99.99,,2013-10-09 05:42:00,
2013-10-09 01:52:00,69.0,68.0,29.95,SW,230,1.0,2.0,98,-99.99,,,-99.99,,2013-10-09 05:52:00,
2013-10-09 02:02:00,69.0,68.0,29.95,SW,230,1.0,2.0,98,-99.99,,,-99.99,,2013-10-09 06:02:00,
2013-10-09 02:22:00,69.0,68.0,29.94,East,84,1.0,2.0,98,-99.99,,,-99.99,,2013-10-09 06:22:00,
2013-10-09 02:42:00,69.0,69.0,29.95,SW,233,1.0,2.0,98,-99.99,,,-99.99,,2013-10-09 06:42:00,
2013-10-09 02:52:00,69.0,68.0,29.95,SSE,162,1.0,3.0,98,-99.99,,,-99.99,,2013-10-09 06:52:00,
2013-10-09 03:02:00,69.0,68.0,29.95,SSE,162,1.0,3.0,98,-99.99,,,-99.99,,2013-10-09 07:02:00,
2013-10-09 03:22:00,69.0,69.0,29.94,WSW,238,1.0,1.0,98,-99.99,,,-99.99,,2013-10-09 07:22:00,
2013-10-09 03:42:00,69.0,69.0,29.94,East,83,1.0,2.0,98,-99.99,,,-99.99,,2013-10-09 07:42:00,
2013-10-09 03:52:00,69.0,69.0,29.94,SE,146,1.0,1.0,98,-99.99,,,-99.99,,2013-10-09 07:52:00,
2013-10-09 04:02:00,69.0,69.0,29.94,SE,146,1.0,1.0,98,-99.99,,,-99.99,,2013-10-09 08:02:00,
2013-10-09 04:23:00,69.0,69.0,29.94,WNW,283,1.0,1.0,98,-99.99,,,-99.99,,2013-10-09 08:23:00,
2013-10-09 04:42:00,70.0,69.0,29.94,West,266,2.0,7.0,98,-99.99,,,-99.99,,2013-10-09 08:42:00,
2013-10-09 04:53:00,71.0,70.0,29.94,SW,229,3.0,5.0,98,-99.99,,,-99.99,,2013-10-09 08:53:00,
2013-10-09 05:02:00,71.0,70.0,29.94,SW,229,3.0,5.0,98,-99.99,,,-99.99,,2013-10-09 09:02:00,
2013-10-09 05:22:00,71.0,70.0,29.94,NE,39,3.0,5.0,97,-99.99,,,-99.99,,2013-10-09 09:22:00,
2013-10-09 05:43:00,71.0,70.0,29.94,NE,50,3.0,5.0,96,-99.99,,,-99.99,,2013-10-09 09:43:00,
2013-10-09 05:53:00,71.0,70.0,29.95,ENE,69,2.0,4.0,96,-99.99,,,-99.99,,2013-10-09 09:53:00,
2013-10-09 06:03:00,71.0,70.0,29.95,ENE,69,2.0,4.0,96,-99.99,,,-99.99,,2013-10-09 10:03:00,
2013-10-09 06:23:00,71.0,70.0,29.95,ENE,68,2.0,4.0,96,-99.99,,,-99.99,,2013-10-09 10:23:00,
2013-10-09 06:43:00,71.0,70.0,29.95,SE,141,1.0,2.0,96,-99.99,,,-99.99,,2013-10-09 10:43:00,
2013-10-09 06:53:00,71.0,70.0,29.96,SSW,193,1.0,2.0,97,-99.99,,,-99.99,,2013-10-09 10:53:00,
2013-10-09 07:02:00,71.0,70.0,29.96,SSW,193,1.0,2.0,97,-99.99,,,-99.99,,2013-10-09 11:02:00,
2013-10-09 07:22:00,71.0,70.0,29.96,ENE,77,3.0,7.0,97,-99.99,,,-99.99,,2013-10-09 11:22:00,
2013-10-09 07:42:00,72.0,71.0,29.96,NE,46,4.0,7.0,97,-99.99,,,-99.99,,2013-10-09 11:42:00,
2013-10-09 07:52:00,72.0,71.0,29.98,NE,53,2.0,4.0,96,-99.99,,,-99.99,,2013-10-09 11:52:00,
2013-10-09 08:01:00,72.0,71.0,29.98,NE,53,2.0,4.0,96,-99.99,,,-99.99,,2013-10-09 12:01:00,
2013-10-09 08:22:00,72.0,71.0,29.98,SE,143,1.0,3.0,96,-99.99,,,-99.99,,2013-10-09 12:22:00,
2013-10-09 08:42:00,72.0,71.0,29.98,SSE,147,2.0,3.0,97,-99.99,,,-99.99,,2013-10-09 12:42:00,
2013-10-09 09:22:00,73.0,72.0,30.00,NE,51,3.0,5.0,95,-99.99,,,-99.99,,2013-10-09 13:22:00,
2013-10-09 09:42:00,74.0,72.0,30.00,NE,51,3.0,6.0,93,-99.99,,,-99.99,,2013-10-09 13:42:00,
2013-10-09 09:52:00,75.0,72.0,30.01,NE,52,5.0,9.0,90,-99.99,,,-99.99,,2013-10-09 13:52:00,
2013-10-09 10:02:00,75.0,72.0,30.01,NE,52,5.0,9.0,90,-99.99,,,-99.99,,2013-10-09 14:02:00,
2013-10-09 10:22:00,75.0,71.0,30.01,NE,41,5.0,12.0,87,-99.99,,,-99.99,,2013-10-09 14:22:00,
2013-10-09 10:42:00,76.0,72.0,30.01,ENE,64,5.0,9.0,86,-99.99,,,-99.99,,2013-10-09 14:42:00,
2013-10-09 10:52:00,77.0,72.0,30.01,ENE,64,6.0,12.0,84,-99.99,,,-99.99,,2013-10-09 14:52:00,
2013-10-09 11:02:00,77.0,72.0,30.01,ENE,64,6.0,12.0,84,-99.99,,,-99.99,,2013-10-09 15:02:00,
2013-10-09 11:22:00,78.0,72.0,30.02,ENE,57,6.0,10.0,82,-99.99,,,-99.99,,2013-10-09 15:22:00,
2013-10-09 11:43:00,78.0,72.0,30.02,ENE,66,5.0,10.0,80,-99.99,,,-99.99,,2013-10-09 15:43:00,
2013-10-09 11:53:00,79.0,72.0,30.02,East,98,5.0,9.0,78,-99.99,,,-99.99,,2013-10-09 15:53:00,
2013-10-09 12:03:00,79.0,72.0,30.02,East,98,5.0,9.0,78,-99.99,,,-99.99,,2013-10-09 16:03:00,
2013-10-09 12:24:00,79.0,72.0,30.03,ESE,102,5.0,9.0,78,-99.99,,,-99.99,,2013-10-09 16:24:00,
2013-10-09 12:42:00,78.0,71.0,30.03,SE,125,6.0,11.0,78,-99.99,,,-99.99,,2013-10-09 16:42:00,
2013-10-09 12:53:00,79.0,71.0,30.03,NE,50,6.0,12.0,76,-99.99,,,-99.99,,2013-10-09 16:53:00,
2013-10-09 13:03:00,79.0,71.0,30.03,NE,50,6.0,12.0,76,-99.99,,,-99.99,,2013-10-09 17:03:00,
2013-10-09 13:22:00,80.0,72.0,30.03,NE,50,5.0,11.0,76,-99.99,,,-99.99,,2013-10-09 17:22:00,
2013-10-09 13:42:00,81.0,72.0,30.02,ESE,103,6.0,10.0,73,-99.99,,,-99.99,,2013-10-09 17:42:00,
2013-10-09 13:52:00,82.0,72.0,30.00,ENE,73,5.0,11.0,70,-99.99,,,-99.99,,2013-10-09 17:52:00,
2013-10-09 14:02:00,82.0,72.0,30.00,ENE,73,5.0,11.0,70,-99.99,,,-99.99,,2013-10-09 18:02:00,
2013-10-09 14:22:00,82.0,72.0,29.99,ESE,102,5.0,11.0,71,-99.99,,,-99.99,,2013-10-09 18:22:00,
2013-10-09 14:42:00,83.0,72.0,29.99,ENE,65,5.0,10.0,69,-99.99,,,-99.99,,2013-10-09 18:42:00,
2013-10-09 14:52:00,83.0,72.0,29.98,SSE,151,4.0,9.0,67,-99.99,,,-99.99,,2013-10-09 18:52:00,
2013-10-09 15:02:00,83.0,72.0,29.98,SSE,151,4.0,9.0,67,-99.99,,,-99.99,,2013-10-09 19:02:00,
2013-10-09 15:22:00,82.0,72.0,29.98,South,184,4.0,9.0,69,-99.99,,,-99.99,,2013-10-09 19:22:00,
2013-10-09 15:42:00,84.0,71.0,29.97,SSE,159,4.0,9.0,65,-99.99,,,-99.99,,2013-10-09 19:42:00,
2013-10-09 15:53:00,84.0,71.0,29.96,East,99,5.0,9.0,65,-99.99,,,-99.99,,2013-10-09 19:53:00,
2013-10-09 16:02:00,84.0,71.0,29.96,East,99,5.0,9.0,65,-99.99,,,-99.99,,2013-10-09 20:02:00,
2013-10-09 16:22:00,86.0,72.0,29.96,ESE,121,4.0,8.0,62,-99.99,,,-99.99,,2013-10-09 20:22:00,
2013-10-09 16:43:00,84.0,71.0,29.96,NE,45,4.0,7.0,64,-99.99,,,-99.99,,2013-10-09 20:43:00,
2013-10-09 17:23:00,86.0,71.0,29.96,ESE,109,3.0,8.0,59,-99.99,,,-99.99,,2013-10-09 21:23:00,
2013-10-09 17:44:00,85.0,71.0,29.96,SSE,158,5.0,10.0,62,-99.99,,,-99.99,,2013-10-09 21:44:00,
2013-10-09 18:24:00,85.0,70.0,29.96,ENE,70,5.0,9.0,60,-99.99,,,-99.99,,2013-10-09 22:24:00,
2013-10-09 18:43:00,84.0,71.0,29.96,West,273,4.0,10.0,63,-99.99,,,-99.99,,2013-10-09 22:43:00,
2013-10-09 19:22:00,82.0,71.0,29.96,NW,321,3.0,6.0,69,-99.99,,,-99.99,,2013-10-09 23:22:00,
2013-10-09 19:43:00,78.0,71.0,29.96,NW,325,3.0,5.0,79,-99.99,,,-99.99,,2013-10-09 23:43:00,
2013-10-09 20:22:00,77.0,71.0,29.96,NW,324,3.0,5.0,80,-99.99,,,-99.99,,2013-10-10 00:22:00,
2013-10-09 20:42:00,75.0,71.0,29.97,NNW,328,2.0,2.0,86,-99.99,,,-99.99,,2013-10-10 00:42:00,
2013-10-09 21:22:00,75.0,70.0,29.98,West,280,3.0,7.0,86,-99.99,,,-99.99,,2013-10-10 01:22:00,
2013-10-09 21:42:00,76.0,71.0,29.98,WSW,256,4.0,7.0,83,-99.99,,,-99.99,,2013-10-10 01:42:00,
2013-10-09 22:22:00,76.0,70.0,30.00,West,273,3.0,8.0,83,-99.99,,,-99.99,,2013-10-10 02:22:00,
2013-10-09 23:22:00,73.0,69.0,30.02,South,181,2.0,5.0,87,-99.99,,,-99.99,,2013-10-10 03:22:00,
2013-10-09 23:44:00,73.0,69.0,30.02,SSE,153,3.0,6.0,88,-99.99,,,-99.99,,2013-10-10 03:44:00,